createdAt,value
2023-03-01T00:00:17.652Z,5.17
2023-03-01T00:03:04.047Z,5.27
2023-03-01T00:05:51.749Z,5.10
2023-03-01T00:08:38.669Z,4.80
2023-03-01T00:11:27.032Z,4.93
2023-03-01T00:14:13.423Z,4.27
2023-03-01T00:16:59.928Z,4.63
2023-03-01T00:19:46.891Z,4.80
2023-03-01T00:22:34.532Z,4.67
2023-03-01T00:25:21.191Z,4.27
2023-03-01T00:28:07.734Z,4.20
2023-03-01T00:30:54.323Z,4.60
2023-03-01T00:33:40.971Z,4.70
2023-03-01T00:36:29.624Z,4.77
2023-03-01T00:39:18.169Z,4.13
2023-03-01T00:42:05.307Z,4.53
2023-03-01T00:44:51.776Z,4.50
2023-03-01T00:47:38.149Z,4.30
2023-03-01T00:50:25.500Z,4.27
2023-03-01T00:53:11.842Z,4.17
2023-03-01T00:56:00.787Z,4.47
2023-03-01T00:58:47.358Z,4.10
2023-03-01T01:01:33.970Z,5.00
2023-03-01T01:04:20.775Z,4.23
2023-03-01T01:07:07.629Z,4.83
2023-03-01T01:09:54.253Z,4.00
2023-03-01T01:12:42.060Z,5.00
2023-03-01T01:15:29.374Z,4.70
2023-03-01T01:18:15.793Z,4.47
2023-03-01T01:21:06.309Z,4.47
2023-03-01T01:23:53.157Z,4.53
2023-03-01T01:26:39.815Z,3.77
2023-03-01T01:29:27.585Z,4.00
2023-03-01T01:32:14.261Z,4.33
2023-03-01T01:35:01.258Z,4.10
2023-03-01T01:37:47.526Z,4.33
2023-03-01T01:40:34.016Z,4.60
2023-03-01T01:43:25.272Z,4.93
2023-03-01T01:46:30.519Z,4.50
2023-03-01T01:49:26.503Z,4.43
2023-03-01T01:52:17.448Z,4.47
2023-03-01T01:55:08.249Z,4.57
2023-03-01T01:57:58.210Z,4.60
2023-03-01T02:00:44.699Z,4.40
2023-03-01T02:03:38.432Z,5.00
2023-03-01T02:06:30.985Z,4.43
2023-03-01T02:09:20.544Z,4.37
2023-03-01T02:12:08.022Z,4.33
2023-03-01T02:14:54.589Z,4.50
2023-03-01T02:17:40.903Z,4.83
2023-03-01T02:20:35.211Z,4.70
2023-03-01T02:23:21.852Z,4.60
2023-03-01T02:26:14.887Z,5.00
2023-03-01T02:29:03.136Z,4.50
2023-03-01T02:31:51.004Z,4.47
2023-03-01T02:34:37.468Z,4.87
2023-03-01T02:37:26.638Z,4.37
2023-03-01T02:40:17.846Z,4.77
2023-03-01T02:43:06.843Z,4.87
2023-03-01T02:45:59.358Z,4.20
2023-03-01T02:48:48.098Z,4.63
2023-03-01T02:51:49.414Z,5.20
2023-03-01T02:54:41.920Z,4.67
2023-03-01T02:57:30.371Z,4.30
2023-03-01T03:00:21.103Z,4.37
2023-03-01T03:03:10.277Z,4.90
2023-03-01T03:05:57.118Z,4.80
2023-03-01T03:08:44.458Z,5.20
2023-03-01T03:11:31.393Z,4.57
2023-03-01T03:14:19.840Z,5.50
2023-03-01T03:17:07.628Z,6.00
2023-03-01T03:19:55.432Z,5.37
2023-03-01T03:22:42.157Z,5.77
2023-03-01T03:25:30.652Z,5.80
2023-03-01T03:28:17.227Z,5.87
2023-03-01T03:31:04.680Z,5.73
2023-03-01T03:33:51.442Z,5.00
2023-03-01T03:36:39.609Z,5.13
2023-03-01T03:39:26.559Z,5.10
2023-03-01T03:42:13.317Z,5.40
2023-03-01T03:44:59.771Z,5.03
2023-03-01T03:47:46.700Z,4.83
2023-03-01T03:50:33.357Z,4.57
2023-03-01T03:53:22.241Z,4.13
2023-03-01T03:56:09.345Z,4.80
2023-03-01T03:58:55.942Z,4.83
2023-03-01T04:01:42.474Z,4.33
2023-03-01T04:04:28.905Z,4.40
2023-03-01T04:07:15.399Z,4.60
2023-03-01T04:10:03.537Z,4.70
2023-03-01T04:12:50.241Z,4.53
2023-03-01T04:15:37.357Z,4.20
2023-03-01T04:18:25.525Z,4.90
2023-03-01T04:21:12.444Z,4.90
2023-03-01T04:23:58.911Z,4.80
2023-03-01T04:26:46.794Z,4.97
2023-03-01T04:29:33.642Z,4.47
2023-03-01T04:32:20.163Z,5.60
2023-03-01T04:35:07.298Z,5.23
2023-03-01T04:37:53.882Z,5.40
2023-03-01T04:40:40.318Z,5.60
2023-03-01T04:43:28.180Z,4.87
2023-03-01T04:46:17.253Z,5.03
2023-03-01T04:49:04.240Z,4.90
2023-03-01T04:51:50.627Z,5.30
2023-03-01T04:54:37.806Z,4.47
2023-03-01T04:57:24.622Z,4.73
2023-03-01T05:00:21.920Z,4.63
2023-03-01T05:03:08.543Z,5.03
2023-03-01T05:05:55.049Z,4.57
2023-03-01T05:08:43.256Z,5.33
2023-03-01T05:11:34.428Z,5.00
2023-03-01T05:14:20.911Z,4.97
2023-03-01T05:17:08.697Z,4.60
2023-03-01T05:19:56.582Z,4.77
2023-03-01T05:22:43.121Z,4.77
2023-03-01T05:25:34.043Z,4.57
2023-03-01T05:28:21.725Z,4.53
2023-03-01T05:31:10.756Z,4.20
2023-03-01T05:33:58.540Z,4.40
2023-03-01T05:36:45.189Z,4.93
2023-03-01T05:39:32.586Z,4.57
2023-03-01T05:42:19.186Z,4.30
2023-03-01T05:45:10.524Z,4.70
2023-03-01T05:47:57.053Z,4.73
2023-03-01T05:50:48.209Z,5.13
2023-03-01T05:53:34.896Z,5.00
2023-03-01T05:56:23.304Z,4.90
2023-03-01T05:59:09.984Z,4.83
2023-03-01T06:01:56.808Z,5.40
2023-03-01T06:04:43.599Z,4.30
2023-03-01T06:07:31.739Z,5.03
2023-03-01T06:10:19.788Z,4.87
2023-03-01T06:13:06.453Z,4.87
2023-03-01T06:15:53.440Z,5.13
2023-03-01T06:18:40.856Z,5.00
2023-03-01T06:21:27.446Z,4.10
2023-03-01T06:24:15.026Z,4.80
2023-03-01T06:27:01.637Z,4.70
2023-03-01T06:29:48.075Z,4.90
2023-03-01T06:32:34.528Z,5.27
2023-03-01T06:35:21.424Z,5.87
2023-03-01T06:38:08.774Z,5.30
2023-03-01T06:40:57.551Z,5.07
2023-03-01T06:43:44.003Z,5.83
2023-03-01T06:46:30.801Z,5.80
2023-03-01T06:49:18.764Z,5.40
2023-03-01T06:52:05.362Z,6.17
2023-03-01T06:54:51.779Z,6.63
2023-03-01T06:57:39.648Z,6.10
2023-03-01T07:00:26.899Z,6.23
2023-03-01T07:03:13.653Z,6.70
2023-03-01T07:06:00.481Z,7.77
2023-03-01T07:08:46.878Z,7.23
2023-03-01T07:11:33.389Z,7.40
2023-03-01T07:14:21.248Z,8.70
2023-03-01T07:17:08.146Z,8.73
2023-03-01T07:19:54.717Z,9.50
2023-03-01T07:22:43.012Z,7.80
2023-03-01T07:25:29.339Z,7.17
2023-03-01T07:28:15.754Z,7.60
2023-03-01T07:31:04.436Z,8.03
2023-03-01T07:33:50.899Z,7.47
2023-03-01T07:36:37.333Z,7.40
2023-03-01T07:39:24.973Z,7.10
2023-03-01T07:42:11.853Z,7.60
2023-03-01T07:44:58.497Z,6.83
2023-03-01T07:47:46.367Z,7.40
2023-03-01T07:50:32.984Z,6.80
2023-03-01T07:53:19.388Z,13.20
2023-03-01T07:56:07.930Z,7.30
2023-03-01T07:58:54.277Z,6.50
2023-03-01T08:01:40.689Z,5.80
2023-03-01T08:04:28.674Z,5.83
2023-03-01T08:07:15.461Z,6.60
2023-03-01T08:10:01.835Z,6.50
2023-03-01T08:12:48.286Z,17.70
2023-03-01T08:15:34.679Z,9.07
2023-03-01T08:18:22.529Z,6.70
2023-03-01T08:21:12.591Z,6.97
2023-03-01T08:23:59.175Z,5.93
2023-03-01T08:26:45.702Z,6.30
2023-03-01T08:29:33.236Z,6.93
2023-03-01T08:32:19.737Z,8.37
2023-03-01T08:35:07.456Z,8.43
2023-03-01T08:37:54.985Z,8.47
2023-03-01T08:40:41.358Z,7.27
2023-03-01T08:43:27.860Z,8.00
2023-03-01T08:46:14.986Z,7.40
2023-03-01T08:49:01.950Z,8.13
2023-03-01T08:51:49.775Z,7.90
2023-03-01T08:54:37.756Z,6.70
2023-03-01T08:57:24.441Z,6.40
2023-03-01T09:00:15.995Z,5.70
2023-03-01T09:03:02.696Z,5.67
2023-03-01T09:05:51.183Z,5.67
2023-03-01T09:08:38.442Z,5.63
2023-03-01T09:11:26.046Z,5.70
2023-03-01T09:14:13.313Z,5.93
2023-03-01T09:17:03.925Z,4.80
2023-03-01T09:19:50.618Z,5.20
2023-03-01T09:22:37.226Z,5.50
2023-03-01T09:25:23.978Z,4.90
2023-03-01T09:28:27.671Z,4.80
2023-03-01T09:31:17.202Z,4.87
2023-03-01T09:34:03.778Z,5.93
2023-03-01T09:36:50.239Z,5.00
2023-03-01T09:39:36.930Z,4.93
2023-03-01T09:42:23.937Z,4.43
2023-03-01T09:45:24.204Z,4.93
2023-03-01T09:48:16.961Z,4.60
2023-03-01T09:51:08.091Z,4.73
2023-03-01T09:53:57.049Z,4.20
2023-03-01T09:56:48.946Z,4.30
2023-03-01T09:59:51.290Z,4.20
2023-03-01T10:02:45.022Z,3.57
2023-03-01T10:05:41.460Z,3.93
2023-03-01T10:08:42.611Z,3.40
2023-03-01T10:11:32.955Z,3.93
2023-03-01T10:14:32.347Z,4.03
2023-03-01T10:17:26.643Z,3.53
2023-03-01T10:20:21.584Z,3.90
2023-03-01T10:23:11.601Z,3.50
2023-03-01T10:26:20.182Z,3.27
2023-03-01T10:29:09.781Z,3.93
2023-03-01T10:31:57.496Z,4.00
2023-03-01T10:34:44.094Z,3.67
2023-03-01T10:37:32.542Z,3.57
2023-03-01T10:40:19.997Z,4.00
2023-03-01T10:43:08.450Z,3.90
2023-03-01T10:45:55.374Z,3.23
2023-03-01T10:48:42.072Z,4.17
2023-03-01T10:51:28.706Z,4.23
2023-03-01T10:54:23.870Z,3.80
2023-03-01T10:57:30.632Z,3.50
2023-03-01T11:00:23.385Z,3.97
2023-03-01T11:03:14.546Z,3.37
2023-03-01T11:06:05.620Z,4.20
2023-03-01T11:08:53.069Z,3.73
2023-03-01T11:11:40.776Z,3.53
2023-03-01T11:14:29.583Z,3.30
2023-03-01T11:17:20.288Z,3.70
2023-03-01T11:20:19.570Z,3.57
2023-03-01T11:23:12.020Z,3.30
2023-03-01T11:26:02.161Z,3.10
2023-03-01T11:28:56.028Z,3.17
2023-03-01T11:31:56.790Z,2.83
2023-03-01T11:34:49.634Z,2.93
2023-03-01T11:37:42.184Z,2.40
2023-03-01T11:40:33.319Z,3.00
2023-03-01T11:43:27.403Z,2.90
2023-03-01T11:46:48.658Z,3.07
2023-03-01T11:49:51.498Z,3.00
2023-03-01T11:52:50.904Z,3.10
2023-03-01T11:55:57.241Z,3.60
2023-03-01T11:59:00.957Z,3.20
2023-03-01T12:02:02.452Z,3.20
2023-03-01T12:05:05.697Z,3.83
2023-03-01T12:07:58.289Z,2.77
2023-03-01T12:10:56.281Z,3.07
2023-03-01T12:14:18.668Z,2.67
2023-03-01T12:17:24.309Z,2.47
2023-03-01T12:20:29.184Z,2.80
2023-03-01T12:23:34.359Z,2.67
2023-03-01T12:26:29.682Z,2.67
2023-03-01T12:29:28.538Z,2.57
2023-03-01T12:32:36.555Z,3.00
2023-03-01T12:35:46.969Z,2.73
2023-03-01T12:38:43.749Z,2.43
2023-03-01T12:41:43.588Z,2.83
2023-03-01T12:44:43.745Z,2.47
2023-03-01T12:47:48.547Z,2.63
2023-03-01T12:50:42.226Z,2.43
2023-03-01T12:53:31.144Z,2.50
2023-03-01T12:56:20.357Z,2.30
2023-03-01T12:59:14.909Z,2.77
2023-03-01T13:02:10.509Z,2.40
2023-03-01T13:05:18.475Z,3.00
2023-03-01T13:08:15.094Z,2.57
2023-03-01T13:11:05.492Z,2.03
2023-03-01T13:13:55.524Z,2.40
2023-03-01T13:16:46.037Z,2.60
2023-03-01T13:19:33.431Z,2.60
2023-03-01T13:22:33.446Z,2.17
2023-03-01T13:25:22.244Z,2.30
2023-03-01T13:28:39.739Z,2.40
2023-03-01T13:32:02.810Z,2.33
2023-03-01T13:34:59.728Z,2.13
2023-03-01T13:37:47.834Z,1.90
2023-03-01T13:41:00.993Z,2.07
2023-03-01T13:43:49.975Z,2.10
2023-03-01T13:46:37.677Z,1.97
2023-03-01T13:49:28.528Z,2.07
2023-03-01T13:52:37.414Z,1.97
2023-03-01T13:55:27.723Z,1.70
2023-03-01T13:58:21.104Z,1.87
2023-03-01T14:01:09.516Z,2.00
2023-03-01T14:03:56.878Z,2.03
2023-03-01T14:06:43.677Z,2.37
2023-03-01T14:09:32.581Z,1.90
2023-03-01T14:12:29.500Z,2.40
2023-03-01T14:15:21.917Z,1.73
2023-03-01T14:18:15.111Z,2.07
2023-03-01T14:21:01.705Z,2.20
2023-03-01T14:23:48.613Z,2.27
2023-03-01T14:26:37.967Z,2.20
2023-03-01T14:29:39.480Z,2.10
2023-03-01T14:32:29.088Z,1.70
2023-03-01T14:35:23.542Z,2.00
2023-03-01T14:38:23.145Z,2.27
2023-03-01T14:41:13.692Z,1.70
2023-03-01T14:44:02.232Z,1.80
2023-03-01T14:46:55.495Z,2.03
2023-03-01T14:49:42.659Z,1.90
2023-03-01T14:52:35.782Z,2.00
2023-03-01T14:55:26.964Z,1.90
2023-03-01T14:58:15.978Z,1.80
2023-03-01T15:01:05.149Z,2.23
2023-03-01T15:03:53.611Z,1.83
2023-03-01T15:06:41.269Z,1.80
2023-03-01T15:09:28.082Z,1.70
2023-03-01T15:12:36.181Z,2.00
2023-03-01T15:15:35.435Z,1.93
2023-03-01T15:18:24.884Z,1.97
2023-03-01T15:21:19.543Z,2.33
2023-03-01T15:24:18.871Z,1.97
2023-03-01T15:27:07.669Z,1.80
2023-03-01T15:29:57.017Z,1.70
2023-03-01T15:32:43.659Z,1.67
2023-03-01T15:35:43.597Z,1.73
2023-03-01T15:38:35.124Z,2.00
2023-03-01T15:41:26.678Z,2.10
2023-03-01T15:44:18.796Z,2.17
2023-03-01T15:47:23.053Z,1.77
2023-03-01T15:50:19.671Z,2.07
2023-03-01T15:53:11.983Z,1.90
2023-03-01T15:56:00.074Z,1.90
2023-03-01T15:58:47.202Z,2.00
2023-03-01T16:01:35.314Z,1.90
2023-03-01T16:04:24.959Z,2.30
2023-03-01T16:07:11.951Z,1.77
2023-03-01T16:09:58.718Z,1.83
2023-03-01T16:12:48.315Z,1.73
2023-03-01T16:15:36.776Z,2.37
2023-03-01T16:18:23.582Z,2.13
2023-03-01T16:21:16.604Z,2.30
2023-03-01T16:24:03.516Z,2.23
2023-03-01T16:26:49.789Z,2.60
2023-03-01T16:29:37.556Z,2.43
2023-03-01T16:32:24.362Z,2.17
2023-03-01T16:35:12.828Z,2.37
2023-03-01T16:38:01.195Z,2.10
2023-03-01T16:40:50.818Z,2.27
2023-03-01T16:43:37.550Z,2.50
2023-03-01T16:46:27.730Z,1.87
2023-03-01T16:49:14.042Z,1.97
2023-03-01T16:52:00.890Z,1.93
2023-03-01T16:54:47.441Z,1.90
2023-03-01T16:57:35.586Z,2.20
2023-03-01T17:00:23.551Z,1.73
2023-03-01T17:03:12.048Z,1.80
2023-03-01T17:05:58.978Z,1.80
2023-03-01T17:08:45.571Z,1.93
2023-03-01T17:11:32.531Z,2.13
2023-03-01T17:14:19.459Z,1.93
2023-03-01T17:17:05.847Z,2.10
2023-03-01T17:19:53.965Z,2.10
2023-03-01T17:22:40.533Z,2.70
2023-03-01T17:25:27.049Z,2.80
2023-03-01T17:28:14.676Z,2.33
2023-03-01T17:31:02.167Z,2.40
2023-03-01T17:33:49.940Z,2.37
2023-03-01T17:36:44.286Z,2.70
2023-03-01T17:39:36.198Z,2.33
2023-03-01T17:42:22.774Z,2.43
2023-03-01T17:45:09.965Z,2.20
2023-03-01T17:47:56.388Z,2.67
2023-03-01T17:50:42.755Z,2.53
2023-03-01T17:53:30.663Z,2.50
2023-03-01T17:56:17.233Z,2.90
2023-03-01T17:59:05.072Z,2.53
2023-03-01T18:01:52.336Z,2.90
2023-03-01T18:04:39.088Z,2.73
2023-03-01T18:07:26.872Z,2.83
2023-03-01T18:10:14.681Z,3.10
2023-03-01T18:13:01.034Z,3.20
2023-03-01T18:15:47.589Z,3.33
2023-03-01T18:18:33.919Z,3.03
2023-03-01T18:21:21.542Z,3.60
2023-03-01T18:24:08.351Z,4.47
2023-03-01T18:26:56.447Z,4.03
2023-03-01T18:29:42.785Z,4.97
2023-03-01T18:32:29.515Z,4.67
2023-03-01T18:35:16.203Z,4.67
2023-03-01T18:38:02.394Z,5.03
2023-03-01T18:40:48.910Z,4.10
2023-03-01T18:43:36.579Z,4.50
2023-03-01T18:46:23.205Z,5.40
2023-03-01T18:49:11.833Z,4.53
2023-03-01T18:51:58.349Z,4.93
2023-03-01T18:54:45.206Z,4.10
2023-03-01T18:57:31.578Z,4.40
2023-03-01T19:00:20.960Z,4.53
2023-03-01T19:03:07.461Z,4.57
2023-03-01T19:05:53.785Z,4.10
2023-03-01T19:08:42.040Z,4.70
2023-03-01T19:11:31.060Z,5.53
2023-03-01T19:14:17.973Z,5.70
2023-03-01T19:17:05.686Z,4.03
2023-03-01T19:19:52.392Z,3.63
2023-03-01T19:22:39.102Z,3.50
2023-03-01T19:25:26.031Z,3.50
2023-03-01T19:28:12.359Z,3.43
2023-03-01T19:31:02.671Z,3.27
2023-03-01T19:33:51.370Z,3.83
2023-03-01T19:36:39.638Z,3.17
2023-03-01T19:39:27.435Z,3.57
2023-03-01T19:42:14.019Z,3.60
2023-03-01T19:45:00.447Z,3.60
2023-03-01T19:47:48.696Z,3.20
2023-03-01T19:50:38.362Z,3.37
2023-03-01T19:53:24.912Z,3.53
2023-03-01T19:56:11.274Z,3.20
2023-03-01T19:59:00.569Z,3.30
2023-03-01T20:01:47.456Z,3.43
2023-03-01T20:04:33.764Z,4.07
2023-03-01T20:07:21.444Z,3.80
2023-03-01T20:10:08.827Z,4.60
2023-03-01T20:12:55.420Z,3.77
2023-03-01T20:15:43.781Z,3.87
2023-03-01T20:18:30.636Z,3.47
2023-03-01T20:21:24.437Z,4.10
2023-03-01T20:24:12.600Z,3.17
2023-03-01T20:26:58.956Z,3.90
2023-03-01T20:29:45.986Z,4.13
2023-03-01T20:32:33.238Z,3.80
2023-03-01T20:35:20.051Z,3.30
2023-03-01T20:38:07.030Z,4.00
2023-03-01T20:41:00.074Z,3.83
2023-03-01T20:43:53.723Z,3.83
2023-03-01T20:46:40.790Z,3.37
2023-03-01T20:49:27.586Z,3.20
2023-03-01T20:52:14.034Z,3.53
2023-03-01T20:55:00.733Z,4.13
2023-03-01T20:57:48.780Z,4.10
2023-03-01T21:00:35.722Z,3.93
2023-03-01T21:03:22.205Z,3.50
2023-03-01T21:06:08.561Z,3.13
2023-03-01T21:08:55.556Z,3.33
2023-03-01T21:11:42.137Z,3.50
2023-03-01T21:14:29.901Z,3.83
2023-03-01T21:17:18.214Z,3.33
2023-03-01T21:20:05.921Z,3.60
2023-03-01T21:22:52.607Z,3.73
2023-03-01T21:25:39.045Z,4.03
2023-03-01T21:28:25.331Z,4.00
2023-03-01T21:31:15.255Z,4.20
2023-03-01T21:34:04.166Z,3.73
2023-03-01T21:36:51.033Z,4.23
2023-03-01T21:39:38.128Z,4.20
2023-03-01T21:42:25.253Z,4.17
2023-03-01T21:45:12.089Z,4.27
2023-03-01T21:47:59.901Z,4.23
2023-03-01T21:50:46.391Z,4.20
2023-03-01T21:53:35.379Z,4.33
2023-03-01T21:56:23.890Z,4.43
2023-03-01T21:59:13.632Z,4.50
2023-03-01T22:02:00.343Z,4.20
2023-03-01T22:04:47.942Z,4.00
2023-03-01T22:07:34.322Z,4.80
2023-03-01T22:10:27.008Z,4.33
2023-03-01T22:13:13.460Z,4.67
2023-03-01T22:16:01.407Z,5.47
2023-03-01T22:18:49.048Z,4.37
2023-03-01T22:21:40.255Z,5.37
2023-03-01T22:24:26.952Z,6.03
2023-03-01T22:27:13.585Z,6.43
2023-03-01T22:30:00.034Z,10.87
2023-03-01T22:32:46.798Z,6.37
2023-03-01T22:35:33.258Z,5.00
2023-03-01T22:38:21.026Z,4.23
2023-03-01T22:41:07.682Z,4.77
2023-03-01T22:43:54.484Z,4.73
2023-03-01T22:46:41.524Z,4.73
2023-03-01T22:49:28.174Z,4.23
2023-03-01T22:52:14.550Z,6.67
2023-03-01T22:55:02.191Z,5.30
2023-03-01T22:57:51.565Z,4.70
2023-03-01T23:00:38.562Z,4.40
2023-03-01T23:03:25.287Z,4.53
2023-03-01T23:06:13.141Z,4.47
2023-03-01T23:09:01.620Z,4.60
2023-03-01T23:11:50.585Z,4.30
2023-03-01T23:14:37.813Z,3.60
2023-03-01T23:17:24.712Z,3.40
2023-03-01T23:20:14.348Z,3.50
2023-03-01T23:23:01.649Z,3.13
2023-03-01T23:25:55.805Z,2.83
2023-03-01T23:28:43.792Z,3.03
2023-03-01T23:31:30.183Z,2.97
2023-03-01T23:34:17.006Z,2.97
2023-03-01T23:37:03.648Z,2.87
2023-03-01T23:39:50.422Z,2.70
2023-03-01T23:42:38.582Z,2.90
2023-03-01T23:45:26.743Z,2.67
2023-03-01T23:48:14.019Z,2.70
2023-03-01T23:51:05.111Z,2.30
2023-03-01T23:53:57.443Z,2.40
2023-03-01T23:56:45.101Z,2.30
2023-03-01T23:59:31.578Z,2.30
